Time;durP1;ratioP1;P1;durP2;ratioP2;P2;SDS_P1;SDS_P2;PMS_P1;PMS_P2;Temp;Humidity;BMP_temperature;BMP_pressure;BME280_temperature;BME280_humidity;BME280_pressure;Samples;Min_cycle;Max_cycle;Signal;HPM_P1;HPM_P2
2023/10/14 00:00:27;;;;;;;;;;;;;;;;;;5037121;28;19995;-78
2023/10/14 00:03:01;;;;;;;;;;;;;;;;;;5037184;28;19925;-78
2023/10/14 00:05:28;;;;;;;;;;;;;;;;;;5038694;28;19925;-80
2023/10/14 00:07:55;;;;;;;;;;;;;;;;;;5037404;28;19928;-79
2023/10/14 00:10:22;;;;;;;;;;;;;;;;;;5036684;28;19994;-78
2023/10/14 00:12:53;;;;;;;;;;;;;;;;;;5035924;28;19932;-78
2023/10/14 00:15:20;;;;;;;;;;;;;;;;;;5036020;28;20403;-78
2023/10/14 00:17:49;;;;;;;;;;;;;;;;;;5054317;28;19924;-79
2023/10/14 00:20:16;;;;;;;;;;;;;;;;;;5050774;28;19925;-78
2023/10/14 00:22:44;;;;;;;;;;;;;;;;;;5036176;28;19979;-77
2023/10/14 00:25:19;;;;;;;;;;;;;;;;;;5036807;28;20339;-77
2023/10/14 00:27:46;;;;;;;;;;;;;;;;;;5036453;28;19925;-78
2023/10/14 00:30:14;;;;;;;;;;;;;;;;;;5038184;28;19929;-78
2023/10/14 00:32:41;;;;;;;;;;;;;;;;;;5021141;28;19976;-77
2023/10/14 00:35:09;;;;;;;;;;;;;;;;;;5036314;28;19929;-77
2023/10/14 00:37:36;;;;;;;;;;;;;;;;;;5035797;28;19999;-78
2023/10/14 00:40:10;;;;;;;;;;;;;;;;;;5037087;28;19932;-76
2023/10/14 00:42:37;;;;;;;;;;;;;;;;;;5037104;28;19925;-77
2023/10/14 00:45:09;;;;;;;;;;;;;;;;;;5036854;28;19979;-78
2023/10/14 00:47:36;;;;;;;;;;;;;;;;;;5037556;28;19925;-78
2023/10/14 00:50:06;;;;;;;;;;;;;;;;;;5040591;28;19925;-76
2023/10/14 00:52:34;;;;;;;;;;;;;;;;;;5047088;28;19925;-77
2023/10/14 00:55:12;;;;;;;;;;;;;;;;;;5038829;28;19980;-75
2023/10/14 00:57:40;;;;;;;;;;;;;;;;;;5035451;28;19931;-76
2023/10/14 01:00:10;;;;;;;;;;;;;;;;;;5035209;28;19932;-76
2023/10/14 01:02:38;;;;;;;;;;;;;;;;;;5034897;28;19979;-76
2023/10/14 01:05:09;;;;;;;;;;;;;;;;;;5034859;28;19926;-75
2023/10/14 01:07:38;;;;;;;;;;;;;;;;;;5034632;28;19925;-75
2023/10/14 01:10:06;;;;;;;;;;;;;;;;;;5035034;28;19929;-75
2023/10/14 01:12:40;;;;;;;;;;;;;;;;;;5035200;28;19968;-76
2023/10/14 01:15:13;;;;;;;;;;;;;;;;;;5034572;28;19956;-75
2023/10/14 01:17:42;;;;;;;;;;;;;;;;;;5034084;28;19929;-76
2023/10/14 01:20:26;;;;;;;;;;;;;;;;;;5034205;28;19975;-76
2023/10/14 01:22:57;;;;;;;;;;;;;;;;;;5034098;28;19925;-75
2023/10/14 01:25:29;;;;;;;;;;;;;;;;;;5048829;28;19924;-76
2023/10/14 01:27:59;;;;;;;;;;;;;;;;;;5054309;28;19934;-76
2023/10/14 01:30:26;;;;;;;;;;;;;;;;;;5053861;28;20007;-75
2023/10/14 01:32:57;;;;;;;;;;;;;;;;;;5053796;28;20372;-75
2023/10/14 01:35:26;;;;;;;;;;;;;;;;;;5053482;28;19972;-76
2023/10/14 01:37:54;;;;;;;;;;;;;;;;;;5053368;28;19932;-75
2023/10/14 01:40:35;;;;;;;;;;;;;;;;;;5053685;28;19929;-76
2023/10/14 01:43:06;;;;;;;;;;;;;;;;;;5014181;28;19979;-76
2023/10/14 01:45:39;;;;;;;;;;;;;;;;;;5013547;28;20036;-75
2023/10/14 01:48:13;;;;;;;;;;;;;;;;;;5032796;28;20040;-76
2023/10/14 01:50:44;;;;;;;;;;;;;;;;;;5033598;28;20021;-76
2023/10/14 01:53:11;;;;;;;;;;;;;;;;;;5033086;28;20015;-76
2023/10/14 01:55:41;;;;;;;;;;;;;;;;;;5033371;28;19932;-77
2023/10/14 01:58:10;;;;;;;;;;;;;;;;;;5034491;28;19925;-77
2023/10/14 02:00:38;;;;;;;;;;;;;;;;;;5047499;28;19956;-76
2023/10/14 02:03:06;;;;;;;;;;;;;;;;;;5033748;28;19925;-76
2023/10/14 02:05:39;;;;;;;;;;;;;;;;;;5033945;28;20384;-78
2023/10/14 02:08:13;;;;;;;;;;;;;;;;;;5020125;28;20016;-77
2023/10/14 02:10:41;;;;;;;;;;;;;;;;;;5013936;28;19932;-76
2023/10/14 02:13:09;;;;;;;;;;;;;;;;;;5013635;28;19976;-76
2023/10/14 02:15:37;;;;;;;;;;;;;;;;;;5030952;28;19929;-76
2023/10/14 02:18:04;;;;;;;;;;;;;;;;;;5038255;28;19925;-77
2023/10/14 02:20:38;;;;;;;;;;;;;;;;;;5032877;28;20014;-76
2023/10/14 02:23:05;;;;;;;;;;;;;;;;;;5033232;28;19925;-77
2023/10/14 02:25:33;;;;;;;;;;;;;;;;;;5033266;28;19929;-77
2023/10/14 02:28:00;;;;;;;;;;;;;;;;;;5033244;28;19925;-76
2023/10/14 02:30:27;;;;;;;;;;;;;;;;;;5033111;28;20328;-77
2023/10/14 02:32:56;;;;;;;;;;;;;;;;;;5033782;28;19953;-76
2023/10/14 02:35:24;;;;;;;;;;;;;;;;;;5032882;28;19926;-76
2023/10/14 02:37:53;;;;;;;;;;;;;;;;;;5033050;28;19925;-77
2023/10/14 02:40:26;;;;;;;;;;;;;;;;;;5033010;28;19925;-76
2023/10/14 02:42:57;;;;;;;;;;;;;;;;;;5033112;28;19925;-76
2023/10/14 02:45:25;;;;;;;;;;;;;;;;;;5033574;28;19925;-76
2023/10/14 02:47:52;;;;;;;;;;;;;;;;;;5033589;28;19956;-77
2023/10/14 02:50:24;;;;;;;;;;;;;;;;;;5047635;28;19928;-76
2023/10/14 02:53:00;;;;;;;;;;;;;;;;;;5052506;28;19931;-75
2023/10/14 02:55:50;;;;;;;;;;;;;;;;;;5034587;28;19972;-76
2023/10/14 02:58:15;;;;;;;;;;;;;;;;;;5040396;28;19925;-76
2023/10/14 03:00:42;;;;;;;;;;;;;;;;;;5039526;28;19936;-77
2023/10/14 03:03:13;;;;;;;;;;;;;;;;;;5037158;28;19925;-76
2023/10/14 03:05:51;;;;;;;;;;;;;;;;;;5036678;28;19929;-76
2023/10/14 03:08:18;;;;;;;;;;;;;;;;;;5036291;28;19925;-76
2023/10/14 03:10:46;;;;;;;;;;;;;;;;;;5036604;28;20443;-76
2023/10/14 03:13:13;;;;;;;;;;;;;;;;;;5036883;28;19925;-76
2023/10/14 03:15:42;;;;;;;;;;;;;;;;;;5036432;28;19975;-76
2023/10/14 03:18:12;;;;;;;;;;;;;;;;;;5036498;28;19948;-76
2023/10/14 03:20:43;;;;;;;;;;;;;;;;;;5036300;28;20012;-76
2023/10/14 03:23:12;;;;;;;;;;;;;;;;;;5036520;28;19925;-76
2023/10/14 03:25:39;;;;;;;;;;;;;;;;;;5036092;28;19929;-76
2023/10/14 03:28:13;;;;;;;;;;;;;;;;;;5036280;28;19925;-76
2023/10/14 03:30:44;;;;;;;;;;;;;;;;;;5036002;28;19968;-76
2023/10/14 03:33:11;;;;;;;;;;;;;;;;;;5036288;28;19952;-76
2023/10/14 03:35:38;;;;;;;;;;;;;;;;;;5036391;28;19933;-76
2023/10/14 03:38:14;;;;;;;;;;;;;;;;;;5036193;28;19925;-76
2023/10/14 03:40:53;;;;;;;;;;;;;;;;;;5045055;28;19967;-76
2023/10/14 03:43:20;;;;;;;;;;;;;;;;;;5055601;28;20442;-76
2023/10/14 03:45:53;;;;;;;;;;;;;;;;;;5055468;28;19932;-76
2023/10/14 03:48:26;;;;;;;;;;;;;;;;;;5055966;28;19939;-76
2023/10/14 03:50:54;;;;;;;;;;;;;;;;;;5055717;28;20018;-76
2023/10/14 03:53:21;;;;;;;;;;;;;;;;;;5055285;28;19936;-76
2023/10/14 03:55:50;;;;;;;;;;;;;;;;;;5039000;28;19925;-76
2023/10/14 03:58:18;;;;;;;;;;;;;;;;;;5049024;28;19925;-75
2023/10/14 04:00:48;;;;;;;;;;;;;;;;;;5055054;28;19925;-76
2023/10/14 04:03:29;;;;;;;;;;;;;;;;;;5055132;28;19924;-75
2023/10/14 04:05:59;;;;;;;;;;;;;;;;;;5021993;28;20407;-76
2023/10/14 04:08:30;;;;;;;;;;;;;;;;;;5014644;28;19933;-76
2023/10/14 04:11:11;;;;;;;;;;;;;;;;;;5015680;28;19932;-76
2023/10/14 04:13:40;;;;;;;;;;;;;;;;;;5018481;28;19926;-77
2023/10/14 04:16:12;;;;;;;;;;;;;;;;;;5034969;28;19929;-75
2023/10/14 04:18:40;;;;;;;;;;;;;;;;;;5037078;28;19971;-76
2023/10/14 04:21:15;;;;;;;;;;;;;;;;;;5035518;28;19957;-76
2023/10/14 04:23:59;;;;;;;;;;;;;;;;;;5035374;28;19940;-76
2023/10/14 04:26:31;;;;;;;;;;;;;;;;;;5036347;28;20331;-75
2023/10/14 04:28:59;;;;;;;;;;;;;;;;;;5035794;28;19948;-75
2023/10/14 04:31:39;;;;;;;;;;;;;;;;;;5042214;28;19925;-75
2023/10/14 04:34:06;;;;;;;;;;;;;;;;;;5054816;28;20372;-75
2023/10/14 04:36:53;;;;;;;;;;;;;;;;;;5054664;28;19925;-76
2023/10/14 04:39:26;;;;;;;;;;;;;;;;;;5054379;28;19971;-75
2023/10/14 04:44:45;;;;;;;;;;;;;;;;;;5036680;28;19932;-76
2023/10/14 04:47:19;;;;;;;;;;;;;;;;;;5055021;28;19924;-75
2023/10/14 04:49:51;;;;;;;;;;;;;;;;;;5053703;28;19925;-75
2023/10/14 04:52:19;;;;;;;;;;;;;;;;;;5050111;28;19932;-76
2023/10/14 04:54:54;;;;;;;;;;;;;;;;;;5022530;28;20326;-75
2023/10/14 04:57:22;;;;;;;;;;;;;;;;;;5034863;28;19925;-76
2023/10/14 04:59:52;;;;;;;;;;;;;;;;;;5034702;28;20354;-75
2023/10/14 05:02:21;;;;;;;;;;;;;;;;;;5034582;28;19929;-75
2023/10/14 05:04:48;;;;;;;;;;;;;;;;;;5034732;28;19995;-76
2023/10/14 05:07:15;;;;;;;;;;;;;;;;;;5035137;28;19929;-75
2023/10/14 05:09:49;;;;;;;;;;;;;;;;;;5034743;28;19947;-76
2023/10/14 05:12:24;;;;;;;;;;;;;;;;;;5034493;28;20360;-77
2023/10/14 05:14:52;;;;;;;;;;;;;;;;;;5034016;28;20016;-76
2023/10/14 05:17:24;;;;;;;;;;;;;;;;;;5034033;28;20360;-75
2023/10/14 05:19:57;;;;;;;;;;;;;;;;;;5033955;28;19929;-75
2023/10/14 05:22:26;;;;;;;;;;;;;;;;;;5040987;28;19925;-75
2023/10/14 05:24:55;;;;;;;;;;;;;;;;;;5054166;28;20429;-76
2023/10/14 05:27:35;;;;;;;;;;;;;;;;;;5053858;28;19931;-73
2023/10/14 05:30:06;;;;;;;;;;;;;;;;;;5053540;28;19928;-74
2023/10/14 05:32:36;;;;;;;;;;;;;;;;;;5053887;28;19978;-76
2023/10/14 05:35:09;;;;;;;;;;;;;;;;;;5053665;28;20372;-76
2023/10/14 05:37:36;;;;;;;;;;;;;;;;;;5053292;28;19976;-76
2023/10/14 05:40:13;;;;;;;;;;;;;;;;;;5040469;28;20411;-76
2023/10/14 05:42:43;;;;;;;;;;;;;;;;;;5033141;28;19936;-76
2023/10/14 05:45:11;;;;;;;;;;;;;;;;;;5033772;28;19979;-74
2023/10/14 05:47:39;;;;;;;;;;;;;;;;;;5033610;28;20016;-74
2023/10/14 05:50:10;;;;;;;;;;;;;;;;;;5033817;28;19925;-75
2023/10/14 05:52:38;;;;;;;;;;;;;;;;;;5033376;28;19925;-75
2023/10/14 05:55:07;;;;;;;;;;;;;;;;;;5033896;28;19936;-76
2023/10/14 05:57:39;;;;;;;;;;;;;;;;;;5033676;28;19925;-75
2023/10/14 06:00:20;;;;;;;;;;;;;;;;;;5033682;28;20285;-75
2023/10/14 06:02:47;;;;;;;;;;;;;;;;;;5033312;28;19931;-76
2023/10/14 06:05:16;;;;;;;;;;;;;;;;;;5034254;28;20321;-74
2023/10/14 06:07:46;;;;;;;;;;;;;;;;;;5033343;28;19925;-75
2023/10/14 06:10:13;;;;;;;;;;;;;;;;;;5033600;28;19967;-75
2023/10/14 06:12:44;;;;;;;;;;;;;;;;;;5034528;28;19925;-75
2023/10/14 06:15:11;;;;;;;;;;;;;;;;;;5053504;28;20291;-74
2023/10/14 06:17:39;;;;;;;;;;;;;;;;;;5053737;28;19925;-75
2023/10/14 06:20:06;;;;;;;;;;;;;;;;;;5053398;28;20453;-76
2023/10/14 06:22:33;;;;;;;;;;;;;;;;;;5054379;28;19928;-76
2023/10/14 06:25:00;;;;;;;;;;;;;;;;;;5041951;28;19933;-75
2023/10/14 06:27:28;;;;;;;;;;;;;;;;;;5037438;28;19925;-76
2023/10/14 06:29:55;;;;;;;;;;;;;;;;;;5036165;28;19935;-75
2023/10/14 06:32:22;;;;;;;;;;;;;;;;;;5053620;28;19924;-76
2023/10/14 06:34:57;;;;;;;;;;;;;;;;;;5035531;28;19925;-76
2023/10/14 06:37:24;;;;;;;;;;;;;;;;;;5033604;28;19925;-75
2023/10/14 06:39:52;;;;;;;;;;;;;;;;;;5033881;28;19930;-76
2023/10/14 06:42:22;;;;;;;;;;;;;;;;;;5034477;28;20024;-76
2023/10/14 06:44:49;;;;;;;;;;;;;;;;;;5034476;28;19983;-76
2023/10/14 06:47:21;;;;;;;;;;;;;;;;;;5021086;28;19936;-77
2023/10/14 06:49:50;;;;;;;;;;;;;;;;;;5033542;28;20383;-75
2023/10/14 06:52:18;;;;;;;;;;;;;;;;;;5033756;28;19968;-75
2023/10/14 06:54:46;;;;;;;;;;;;;;;;;;5032760;28;19952;-76
2023/10/14 06:57:14;;;;;;;;;;;;;;;;;;5033490;28;20418;-75
2023/10/14 06:59:41;;;;;;;;;;;;;;;;;;5033854;28;19979;-75
2023/10/14 07:02:10;;;;;;;;;;;;;;;;;;5034013;28;19979;-76
2023/10/14 07:04:40;;;;;;;;;;;;;;;;;;5033382;28;19937;-76
2023/10/14 07:07:09;;;;;;;;;;;;;;;;;;5032710;28;20019;-75
2023/10/14 07:09:37;;;;;;;;;;;;;;;;;;5032676;28;19987;-74
2023/10/14 07:12:13;;;;;;;;;;;;;;;;;;5032316;28;19932;-74
2023/10/14 07:14:40;;;;;;;;;;;;;;;;;;5032752;28;20017;-75
2023/10/14 07:17:07;;;;;;;;;;;;;;;;;;5034124;28;19932;-75
2023/10/14 07:19:35;;;;;;;;;;;;;;;;;;5032554;28;19947;-76
2023/10/14 07:22:07;;;;;;;;;;;;;;;;;;5039213;28;19925;-77
2023/10/14 07:24:35;;;;;;;;;;;;;;;;;;5032689;28;19925;-76
2023/10/14 07:27:02;;;;;;;;;;;;;;;;;;5032378;28;19937;-76
2023/10/14 07:29:29;;;;;;;;;;;;;;;;;;5032418;28;19931;-76
2023/10/14 07:31:56;;;;;;;;;;;;;;;;;;5032490;28;20345;-76
2023/10/14 07:34:23;;;;;;;;;;;;;;;;;;5032051;28;20347;-77
2023/10/14 07:36:51;;;;;;;;;;;;;;;;;;5032484;28;19925;-77
2023/10/14 07:39:28;;;;;;;;;;;;;;;;;;5046711;28;19948;-74
2023/10/14 07:41:55;;;;;;;;;;;;;;;;;;5052772;28;19976;-76
2023/10/14 07:44:23;;;;;;;;;;;;;;;;;;5055781;28;19971;-76
2023/10/14 07:46:51;;;;;;;;;;;;;;;;;;5055279;28;20012;-76
2023/10/14 07:49:18;;;;;;;;;;;;;;;;;;5056470;28;20012;-76
2023/10/14 07:51:46;;;;;;;;;;;;;;;;;;5056488;28;19924;-77
2023/10/14 07:54:13;;;;;;;;;;;;;;;;;;5056267;28;19929;-75
2023/10/14 07:56:42;;;;;;;;;;;;;;;;;;5038986;28;20384;-75
2023/10/14 07:59:10;;;;;;;;;;;;;;;;;;5035088;28;20371;-71
2023/10/14 08:01:38;;;;;;;;;;;;;;;;;;5036899;28;19925;-77
2023/10/14 08:04:07;;;;;;;;;;;;;;;;;;5036250;28;19937;-76
2023/10/14 08:06:40;;;;;;;;;;;;;;;;;;5035782;28;20398;-76
2023/10/14 08:09:15;;;;;;;;;;;;;;;;;;5034983;28;19925;-76
2023/10/14 08:11:42;;;;;;;;;;;;;;;;;;5035365;28;20341;-76
2023/10/14 08:14:09;;;;;;;;;;;;;;;;;;5034986;28;19925;-77
2023/10/14 08:16:37;;;;;;;;;;;;;;;;;;5034844;28;19972;-77
2023/10/14 08:19:06;;;;;;;;;;;;;;;;;;5035624;28;19925;-77
2023/10/14 08:21:36;;;;;;;;;;;;;;;;;;5035560;28;20020;-78
2023/10/14 08:24:05;;;;;;;;;;;;;;;;;;5036058;28;19925;-75
2023/10/14 08:26:32;;;;;;;;;;;;;;;;;;5035694;28;19943;-78
2023/10/14 08:29:01;;;;;;;;;;;;;;;;;;5035765;28;19925;-77
2023/10/14 08:31:28;;;;;;;;;;;;;;;;;;5034954;28;19983;-77
2023/10/14 08:33:55;;;;;;;;;;;;;;;;;;5034970;28;19925;-77
2023/10/14 08:36:22;;;;;;;;;;;;;;;;;;5034715;28;19925;-77
2023/10/14 08:38:49;;;;;;;;;;;;;;;;;;5034489;28;19979;-76
2023/10/14 08:41:16;;;;;;;;;;;;;;;;;;5034920;28;19925;-77
2023/10/14 08:43:49;;;;;;;;;;;;;;;;;;5034399;28;19979;-78
2023/10/14 08:46:17;;;;;;;;;;;;;;;;;;5035313;28;20028;-76
2023/10/14 08:48:44;;;;;;;;;;;;;;;;;;5033972;28;19925;-77
2023/10/14 08:51:11;;;;;;;;;;;;;;;;;;5034291;28;19925;-76
2023/10/14 08:53:41;;;;;;;;;;;;;;;;;;5033783;28;19925;-78
2023/10/14 08:56:08;;;;;;;;;;;;;;;;;;5034589;28;19975;-77
2023/10/14 08:58:37;;;;;;;;;;;;;;;;;;5034158;28;20436;-77
2023/10/14 09:01:05;;;;;;;;;;;;;;;;;;5034455;28;20032;-77
2023/10/14 09:03:32;;;;;;;;;;;;;;;;;;5035089;28;19925;-77
2023/10/14 09:05:59;;;;;;;;;;;;;;;;;;5034651;28;19975;-76
2023/10/14 09:08:26;;;;;;;;;;;;;;;;;;5034460;28;19940;-76
2023/10/14 09:10:53;;;;;;;;;;;;;;;;;;5034183;28;19937;-76
2023/10/14 09:13:20;;;;;;;;;;;;;;;;;;5033983;28;20331;-77
2023/10/14 09:15:47;;;;;;;;;;;;;;;;;;5034458;28;20035;-76
2023/10/14 09:18:14;;;;;;;;;;;;;;;;;;5033816;28;19925;-77
2023/10/14 09:20:41;;;;;;;;;;;;;;;;;;5034318;28;19933;-76
2023/10/14 09:23:08;;;;;;;;;;;;;;;;;;5033837;28;19925;-76
2023/10/14 09:25:35;;;;;;;;;;;;;;;;;;5033835;28;20369;-74
2023/10/14 09:28:02;;;;;;;;;;;;;;;;;;5033319;28;19932;-73
2023/10/14 09:30:29;;;;;;;;;;;;;;;;;;5033224;28;19987;-73
2023/10/14 09:32:57;;;;;;;;;;;;;;;;;;5033211;28;19925;-76
2023/10/14 09:35:29;;;;;;;;;;;;;;;;;;5033449;28;19973;-75
2023/10/14 09:37:56;;;;;;;;;;;;;;;;;;5044263;28;20015;-76
2023/10/14 09:40:24;;;;;;;;;;;;;;;;;;5053062;28;20007;-76
2023/10/14 09:42:52;;;;;;;;;;;;;;;;;;5053360;28;19925;-76
2023/10/14 09:45:19;;;;;;;;;;;;;;;;;;5053564;28;19970;-77
2023/10/14 09:47:46;;;;;;;;;;;;;;;;;;5053691;28;20356;-77
2023/10/14 09:50:14;;;;;;;;;;;;;;;;;;5053366;28;20300;-75
2023/10/14 09:52:42;;;;;;;;;;;;;;;;;;5053925;28;19968;-76
2023/10/14 09:55:13;;;;;;;;;;;;;;;;;;5052365;28;19970;-76
2023/10/14 09:57:41;;;;;;;;;;;;;;;;;;5032349;28;19933;-76
2023/10/14 10:00:10;;;;;;;;;;;;;;;;;;5013792;28;20013;-77
2023/10/14 10:02:37;;;;;;;;;;;;;;;;;;5013830;28;19925;-77
2023/10/14 10:05:04;;;;;;;;;;;;;;;;;;5012830;28;20005;-77
2023/10/14 10:07:31;;;;;;;;;;;;;;;;;;5013934;28;19925;-76
2023/10/14 10:10:01;;;;;;;;;;;;;;;;;;5012870;28;19936;-76
2023/10/14 10:12:28;;;;;;;;;;;;;;;;;;5029910;28;19929;-76
2023/10/14 10:14:55;;;;;;;;;;;;;;;;;;5033071;28;19925;-77
2023/10/14 10:17:24;;;;;;;;;;;;;;;;;;5032825;28;19979;-77
2023/10/14 10:19:51;;;;;;;;;;;;;;;;;;5032914;28;20308;-76
2023/10/14 10:22:18;;;;;;;;;;;;;;;;;;5033003;28;19925;-74
2023/10/14 10:24:45;;;;;;;;;;;;;;;;;;5032562;28;19925;-75
2023/10/14 10:27:14;;;;;;;;;;;;;;;;;;5033584;28;19924;-76
2023/10/14 10:29:42;;;;;;;;;;;;;;;;;;5050729;28;19979;-77
2023/10/14 10:32:09;;;;;;;;;;;;;;;;;;5052696;28;20460;-77
2023/10/14 10:34:36;;;;;;;;;;;;;;;;;;5052536;28;19929;-76
2023/10/14 10:37:04;;;;;;;;;;;;;;;;;;5052824;28;20002;-75
2023/10/14 10:39:31;;;;;;;;;;;;;;;;;;5052538;28;19925;-78
2023/10/14 10:41:59;;;;;;;;;;;;;;;;;;5052896;28;19925;-77
2023/10/14 10:44:26;;;;;;;;;;;;;;;;;;5052492;28;20272;-78
2023/10/14 10:46:53;;;;;;;;;;;;;;;;;;5051615;28;20008;-77
2023/10/14 10:49:20;;;;;;;;;;;;;;;;;;5052580;28;19978;-75
2023/10/14 10:51:47;;;;;;;;;;;;;;;;;;5051972;28;19995;-77
2023/10/14 10:54:14;;;;;;;;;;;;;;;;;;5052416;28;19978;-77
2023/10/14 10:56:42;;;;;;;;;;;;;;;;;;5026722;28;20308;-76
2023/10/14 10:59:08;;;;;;;;;;;;;;;;;;5012465;28;19925;-76
2023/10/14 11:01:35;;;;;;;;;;;;;;;;;;5014396;28;19918;-77
2023/10/14 11:04:03;;;;;;;;;;;;;;;;;;5032705;28;19974;-77
2023/10/14 11:06:31;;;;;;;;;;;;;;;;;;5032274;28;19929;-78
2023/10/14 11:08:58;;;;;;;;;;;;;;;;;;5032980;28;20392;-78
2023/10/14 11:11:25;;;;;;;;;;;;;;;;;;5032313;28;20070;-77
2023/10/14 11:13:52;;;;;;;;;;;;;;;;;;5032410;28;19933;-78
2023/10/14 11:16:20;;;;;;;;;;;;;;;;;;5033677;28;20347;-79
2023/10/14 11:18:48;;;;;;;;;;;;;;;;;;5036939;28;19929;-77
2023/10/14 11:21:15;;;;;;;;;;;;;;;;;;5036238;28;19972;-78
2023/10/14 11:23:42;;;;;;;;;;;;;;;;;;5036912;28;20007;-78
2023/10/14 11:26:09;;;;;;;;;;;;;;;;;;5037032;28;19925;-77
2023/10/14 11:28:37;;;;;;;;;;;;;;;;;;5037694;28;19925;-77
2023/10/14 11:31:07;;;;;;;;;;;;;;;;;;5038913;28;19928;-79
2023/10/14 11:33:34;;;;;;;;;;;;;;;;;;5037966;28;20348;-78
2023/10/14 11:36:02;;;;;;;;;;;;;;;;;;5041879;28;19929;-76
2023/10/14 11:38:29;;;;;;;;;;;;;;;;;;5056972;28;19929;-76
2023/10/14 11:40:58;;;;;;;;;;;;;;;;;;5056543;28;19925;-79
2023/10/14 11:43:25;;;;;;;;;;;;;;;;;;5056748;28;19928;-78
2023/10/14 11:45:54;;;;;;;;;;;;;;;;;;5056055;28;19986;-79
2023/10/14 11:48:22;;;;;;;;;;;;;;;;;;5056230;28;19932;-78
2023/10/14 11:50:49;;;;;;;;;;;;;;;;;;5056206;28;19925;-79
2023/10/14 11:53:16;;;;;;;;;;;;;;;;;;5055092;28;19924;-77
2023/10/14 11:55:44;;;;;;;;;;;;;;;;;;5039985;28;19925;-78
2023/10/14 11:58:11;;;;;;;;;;;;;;;;;;5041459;28;19932;-78
2023/10/14 12:00:38;;;;;;;;;;;;;;;;;;5037668;28;20291;-79
2023/10/14 12:03:05;;;;;;;;;;;;;;;;;;5036018;28;19936;-79
2023/10/14 12:05:39;;;;;;;;;;;;;;;;;;5036874;28;19929;-80
2023/10/14 12:08:08;;;;;;;;;;;;;;;;;;5036148;28;19929;-78
2023/10/14 12:10:35;;;;;;;;;;;;;;;;;;5043695;28;20026;-78
2023/10/14 12:13:03;;;;;;;;;;;;;;;;;;5043868;28;20422;-82
2023/10/14 12:15:35;;;;;;;;;;;;;;;;;;5033243;28;19925;-79
2023/10/14 12:18:02;;;;;;;;;;;;;;;;;;5029176;28;20108;-77
2023/10/14 12:20:34;;;;;;;;;;;;;;;;;;5036478;28;20396;-77
2023/10/14 12:23:02;;;;;;;;;;;;;;;;;;5031809;28;19933;-76
2023/10/14 12:25:29;;;;;;;;;;;;;;;;;;5030513;28;20389;-77
2023/10/14 12:27:57;;;;;;;;;;;;;;;;;;5032582;28;19983;-77
2023/10/14 12:30:39;;;;;;;;;;;;;;;;;;5032485;28;19936;-77
2023/10/14 12:33:07;;;;;;;;;;;;;;;;;;5031752;28;19925;-76
2023/10/14 12:35:36;;;;;;;;;;;;;;;;;;5033051;28;20388;-76
2023/10/14 12:38:11;;;;;;;;;;;;;;;;;;5034394;28;19979;-76
2023/10/14 12:40:38;;;;;;;;;;;;;;;;;;5031093;28;20450;-76
2023/10/14 12:43:05;;;;;;;;;;;;;;;;;;5034294;28;19925;-76
2023/10/14 12:45:34;;;;;;;;;;;;;;;;;;5050692;28;19925;-76
2023/10/14 12:48:09;;;;;;;;;;;;;;;;;;5035900;28;19925;-76
2023/10/14 12:50:40;;;;;;;;;;;;;;;;;;5034485;28;19925;-77
2023/10/14 12:53:08;;;;;;;;;;;;;;;;;;5027401;28;20381;-77
2023/10/14 12:55:35;;;;;;;;;;;;;;;;;;5031160;28;20419;-77
2023/10/14 12:58:03;;;;;;;;;;;;;;;;;;5033503;28;20299;-77
2023/10/14 13:00:31;;;;;;;;;;;;;;;;;;5033028;28;19929;-76
2023/10/14 13:02:58;;;;;;;;;;;;;;;;;;5028383;28;19971;-77
2023/10/14 13:05:25;;;;;;;;;;;;;;;;;;5033182;28;19936;-78
2023/10/14 13:07:53;;;;;;;;;;;;;;;;;;5034189;28;20407;-77
2023/10/14 13:10:20;;;;;;;;;;;;;;;;;;5032503;28;19963;-78
2023/10/14 13:12:49;;;;;;;;;;;;;;;;;;5030657;28;19924;-76
2023/10/14 13:15:25;;;;;;;;;;;;;;;;;;5029741;28;19960;-76
2023/10/14 13:17:55;;;;;;;;;;;;;;;;;;5034097;28;19932;-75
2023/10/14 13:20:26;;;;;;;;;;;;;;;;;;5031148;28;20376;-76
2023/10/14 13:22:53;;;;;;;;;;;;;;;;;;5032483;28;19959;-73
2023/10/14 13:25:21;;;;;;;;;;;;;;;;;;5032280;28;19932;-75
2023/10/14 13:27:51;;;;;;;;;;;;;;;;;;5033327;28;19989;-75
2023/10/14 13:30:22;;;;;;;;;;;;;;;;;;5032452;28;19932;-74
2023/10/14 13:32:49;;;;;;;;;;;;;;;;;;5032916;28;19932;-76
2023/10/14 13:35:16;;;;;;;;;;;;;;;;;;5032516;28;20376;-74
2023/10/14 13:37:43;;;;;;;;;;;;;;;;;;5031353;28;20016;-76
2023/10/14 13:40:11;;;;;;;;;;;;;;;;;;5030100;28;20048;-76
2023/10/14 13:42:38;;;;;;;;;;;;;;;;;;5028675;28;19932;-78
2023/10/14 13:45:05;;;;;;;;;;;;;;;;;;5030549;28;19925;-77
2023/10/14 13:47:32;;;;;;;;;;;;;;;;;;5031010;28;19953;-76
2023/10/14 13:49:59;;;;;;;;;;;;;;;;;;5032764;28;19987;-76
2023/10/14 13:52:26;;;;;;;;;;;;;;;;;;5031476;28;19925;-77
2023/10/14 13:54:53;;;;;;;;;;;;;;;;;;5031261;28;19925;-77
2023/10/14 13:57:20;;;;;;;;;;;;;;;;;;5032203;28;19925;-76
2023/10/14 13:59:47;;;;;;;;;;;;;;;;;;5027452;28;19925;-75
2023/10/14 14:02:15;;;;;;;;;;;;;;;;;;5030471;28;19925;-76
2023/10/14 14:04:44;;;;;;;;;;;;;;;;;;5028588;28;19925;-77
2023/10/14 14:07:12;;;;;;;;;;;;;;;;;;5032045;28;19925;-77
2023/10/14 14:09:41;;;;;;;;;;;;;;;;;;5030973;28;21775;-76
2023/10/14 14:12:08;;;;;;;;;;;;;;;;;;5032077;28;19925;-75
2023/10/14 14:14:36;;;;;;;;;;;;;;;;;;5029071;28;19937;-76
2023/10/14 14:17:04;;;;;;;;;;;;;;;;;;5043275;28;19928;-75
2023/10/14 14:19:31;;;;;;;;;;;;;;;;;;5031159;28;19925;-75
2023/10/14 14:21:59;;;;;;;;;;;;;;;;;;5031634;28;19936;-78
2023/10/14 14:24:26;;;;;;;;;;;;;;;;;;5029440;28;19936;-77
2023/10/14 14:26:53;;;;;;;;;;;;;;;;;;5032009;28;19975;-76
2023/10/14 14:29:20;;;;;;;;;;;;;;;;;;5031386;28;20450;-76
2023/10/14 14:31:49;;;;;;;;;;;;;;;;;;5031534;28;19929;-77
2023/10/14 14:34:16;;;;;;;;;;;;;;;;;;5031707;28;19979;-78
2023/10/14 14:36:44;;;;;;;;;;;;;;;;;;5031797;28;19979;-80
2023/10/14 14:39:15;;;;;;;;;;;;;;;;;;5032425;28;19987;-75
2023/10/14 14:41:44;;;;;;;;;;;;;;;;;;5032432;28;19932;-77
2023/10/14 14:44:13;;;;;;;;;;;;;;;;;;5031465;28;20020;-75
2023/10/14 14:46:40;;;;;;;;;;;;;;;;;;5019973;28;19926;-76
2023/10/14 14:49:12;;;;;;;;;;;;;;;;;;5031522;28;20454;-76
2023/10/14 14:51:40;;;;;;;;;;;;;;;;;;5033466;28;19932;-78
2023/10/14 14:54:08;;;;;;;;;;;;;;;;;;5035827;28;20011;-77
2023/10/14 14:56:36;;;;;;;;;;;;;;;;;;5035891;28;19925;-77
2023/10/14 14:59:03;;;;;;;;;;;;;;;;;;5036058;28;19933;-77
2023/10/14 15:01:31;;;;;;;;;;;;;;;;;;5053206;28;19925;-77
2023/10/14 15:03:58;;;;;;;;;;;;;;;;;;5041002;28;19925;-77
2023/10/14 15:06:25;;;;;;;;;;;;;;;;;;5037101;28;19925;-76
2023/10/14 15:08:52;;;;;;;;;;;;;;;;;;5036680;28;20373;-76
2023/10/14 15:11:19;;;;;;;;;;;;;;;;;;5035398;28;19929;-76
2023/10/14 15:13:46;;;;;;;;;;;;;;;;;;5037220;28;19944;-76
2023/10/14 15:16:14;;;;;;;;;;;;;;;;;;5036969;28;19929;-74
2023/10/14 15:18:41;;;;;;;;;;;;;;;;;;5034531;28;19925;-73
2023/10/14 15:21:08;;;;;;;;;;;;;;;;;;5036185;28;19925;-73
2023/10/14 15:23:36;;;;;;;;;;;;;;;;;;5026883;28;19948;-72
2023/10/14 15:26:07;;;;;;;;;;;;;;;;;;5026235;28;19933;-72
2023/10/14 15:28:35;;;;;;;;;;;;;;;;;;5029169;28;19925;-72
2023/10/14 15:31:07;;;;;;;;;;;;;;;;;;5025697;28;19936;-73
2023/10/14 15:33:34;;;;;;;;;;;;;;;;;;5025533;28;19952;-74
2023/10/14 15:36:01;;;;;;;;;;;;;;;;;;5030519;28;19948;-73
2023/10/14 15:38:28;;;;;;;;;;;;;;;;;;5027361;28;20266;-73
2023/10/14 15:40:57;;;;;;;;;;;;;;;;;;5022009;28;19944;-72
2023/10/14 15:43:24;;;;;;;;;;;;;;;;;;5028153;28;19940;-73
2023/10/14 15:45:51;;;;;;;;;;;;;;;;;;5025254;28;19932;-73
2023/10/14 15:48:21;;;;;;;;;;;;;;;;;;5023929;28;19948;-73
2023/10/14 15:50:48;;;;;;;;;;;;;;;;;;5025891;28;19940;-73
2023/10/14 15:53:15;;;;;;;;;;;;;;;;;;5023026;28;19929;-74
2023/10/14 15:55:42;;;;;;;;;;;;;;;;;;5021735;28;19933;-74
2023/10/14 15:58:09;;;;;;;;;;;;;;;;;;5021251;28;19936;-73
2023/10/14 16:00:39;;;;;;;;;;;;;;;;;;5026382;28;20391;-72
2023/10/14 16:03:07;;;;;;;;;;;;;;;;;;5026356;28;20335;-73
2023/10/14 16:05:35;;;;;;;;;;;;;;;;;;5023964;28;19944;-73
2023/10/14 16:08:02;;;;;;;;;;;;;;;;;;5022338;28;19933;-73
2023/10/14 16:10:29;;;;;;;;;;;;;;;;;;5026488;28;19944;-78
2023/10/14 16:12:58;;;;;;;;;;;;;;;;;;5022058;28;20400;-75
2023/10/14 16:15:25;;;;;;;;;;;;;;;;;;5021141;28;19965;-76
2023/10/14 16:17:52;;;;;;;;;;;;;;;;;;5018928;28;19933;-76
2023/10/14 16:20:20;;;;;;;;;;;;;;;;;;5019748;28;20486;-76
2023/10/14 16:22:47;;;;;;;;;;;;;;;;;;5022641;28;20328;-76
2023/10/14 16:25:16;;;;;;;;;;;;;;;;;;5025117;28;19971;-76
2023/10/14 16:27:43;;;;;;;;;;;;;;;;;;5027871;28;19933;-76
2023/10/14 16:30:14;;;;;;;;;;;;;;;;;;5028448;28;20261;-76
2023/10/14 16:32:41;;;;;;;;;;;;;;;;;;5023442;28;19967;-76
2023/10/14 16:35:08;;;;;;;;;;;;;;;;;;5023352;28;19968;-76
2023/10/14 16:37:35;;;;;;;;;;;;;;;;;;5018811;28;19929;-75
2023/10/14 16:40:04;;;;;;;;;;;;;;;;;;5022167;28;20410;-76
2023/10/14 16:42:31;;;;;;;;;;;;;;;;;;5016748;28;20031;-75
2023/10/14 16:44:58;;;;;;;;;;;;;;;;;;5023008;28;19940;-75
2023/10/14 16:47:25;;;;;;;;;;;;;;;;;;5023889;28;19933;-76
2023/10/14 16:49:52;;;;;;;;;;;;;;;;;;5023488;28;19925;-74
2023/10/14 16:52:20;;;;;;;;;;;;;;;;;;5026039;28;20298;-76
2023/10/14 16:54:47;;;;;;;;;;;;;;;;;;5028716;28;19933;-75
2023/10/14 16:57:15;;;;;;;;;;;;;;;;;;5029121;28;19940;-75
2023/10/14 16:59:42;;;;;;;;;;;;;;;;;;5026609;28;20048;-75